Time;durP1;ratioP1;P1;durP2;ratioP2;P2;SDS_P1;SDS_P2;PMS_P1;PMS_P2;Temp;Humidity;BMP_temperature;BMP_pressure;BME280_temperature;BME280_humidity;BME280_pressure;Samples;Min_cycle;Max_cycle;Signal;HPM_P1;HPM_P2
2023/05/28 00:00:34;;;;;;;28.20;15.88;;;;;;;-142.57;100.00;115900.28;4862990;29;20121;-83
2023/05/28 00:03:00;;;;;;;25.40;15.32;;;;;;;-142.57;100.00;115900.28;4862471;29;20041;-81
2023/05/28 00:05:25;;;;;;;30.80;16.00;;;;;;;-142.57;100.00;115900.28;4862646;29;20041;-81
2023/05/28 00:07:51;;;;;;;28.30;14.70;;;;;;;-142.57;100.00;115900.28;4862947;29;20124;-82
2023/05/28 00:10:16;;;;;;;28.75;14.50;;;;;;;-142.57;100.00;115900.28;4863508;29;20033;-80
2023/05/28 00:12:42;;;;;;;25.55;14.63;;;;;;;-142.57;100.00;115900.28;4863016;29;20480;-82
2023/05/28 00:15:08;;;;;;;21.23;14.10;;;;;;;-142.57;100.00;115900.28;4863166;29;20052;-83
2023/05/28 00:17:34;;;;;;;24.30;14.23;;;;;;;-142.57;100.00;115900.28;4863358;29;20120;-83
2023/05/28 00:19:59;;;;;;;24.20;13.68;;;;;;;-142.57;100.00;115900.28;4868922;29;20033;-81
2023/05/28 00:22:25;;;;;;;20.00;12.68;;;;;;;-142.57;100.00;115900.28;4871811;29;20072;-82
2023/05/28 00:24:51;;;;;;;23.05;12.75;;;;;;;-142.57;100.00;115900.28;4864738;29;20052;-82
2023/05/28 00:27:16;;;;;;;19.08;11.73;;;;;;;-142.57;100.00;115900.28;4863591;29;20041;-81
2023/05/28 00:29:43;;;;;;;17.67;10.85;;;;;;;-142.57;100.00;115900.28;4861430;29;20093;-83
2023/05/28 00:32:09;;;;;;;25.10;10.90;;;;;;;-142.57;100.00;115900.28;4845556;29;20124;-83
2023/05/28 00:34:35;;;;;;;22.23;10.90;;;;;;;-142.57;100.00;115900.28;4845773;29;20059;-84
2023/05/28 00:37:00;;;;;;;19.00;10.98;;;;;;;-142.57;100.00;115900.28;4862771;29;20709;-83
2023/05/28 00:39:26;;;;;;;25.35;12.13;;;;;;;-142.57;100.00;115900.28;4863205;29;20342;-84
2023/05/28 00:42:02;;;;;;;21.02;11.98;;;;;;;-142.57;100.00;115900.28;4862941;29;20128;-83
2023/05/28 00:44:38;;;;;;;24.73;12.23;;;;;;;-142.57;100.00;115900.28;4866808;29;20072;-84
2023/05/28 00:47:04;;;;;;;27.42;14.13;;;;;;;-142.57;100.00;115900.28;4866309;29;20041;-82
2023/05/28 00:49:32;;;;;;;25.00;13.98;;;;;;;-142.57;100.00;115900.28;4845708;29;20044;-82
2023/05/28 00:51:59;;;;;;;27.60;13.07;;;;;;;-142.57;100.00;115900.28;4862709;29;20037;-81
2023/05/28 00:54:25;;;;;;;23.83;13.30;;;;;;;-142.57;100.00;115900.28;4846426;29;20147;-82
2023/05/28 00:56:53;;;;;;;22.80;12.90;;;;;;;-142.57;100.00;115900.28;4862943;29;20480;-80
2023/05/28 00:59:18;;;;;;;20.25;12.10;;;;;;;-142.57;100.00;115900.28;4862352;29;20496;-81
2023/05/28 01:01:44;;;;;;;28.67;13.63;;;;;;;-142.57;100.00;115900.28;4845656;29;20101;-81
2023/05/28 01:04:10;;;;;;;21.10;13.43;;;;;;;-142.57;100.00;115900.28;4861976;29;20046;-81
2023/05/28 01:06:39;;;;;;;22.05;12.95;;;;;;;-142.57;100.00;115900.28;4844861;29;20037;-82
2023/05/28 01:09:06;;;;;;;24.88;13.73;;;;;;;-142.57;100.00;115900.28;4845147;29;20045;-83
2023/05/28 01:11:32;;;;;;;25.00;14.18;;;;;;;-142.57;100.00;115900.28;4860994;29;20068;-82
2023/05/28 01:13:58;;;;;;;24.92;13.23;;;;;;;-142.57;100.00;115900.28;4861403;29;20076;-80
2023/05/28 01:16:27;;;;;;;24.00;12.85;;;;;;;-142.57;100.00;115900.28;4860052;29;20480;-80
2023/05/28 01:18:55;;;;;;;25.73;13.30;;;;;;;-142.57;100.00;115900.28;4861127;29;20042;-81
2023/05/28 01:21:24;;;;;;;26.02;14.55;;;;;;;-142.57;100.00;115900.28;4844724;29;20085;-80
2023/05/28 01:23:52;;;;;;;20.77;13.63;;;;;;;-142.57;100.00;115900.28;4844351;29;20488;-81
2023/05/28 01:26:18;;;;;;;22.52;12.98;;;;;;;-142.57;100.00;115900.28;4844088;29;20045;-81
2023/05/28 01:28:45;;;;;;;24.85;13.23;;;;;;;-142.57;100.00;115900.28;4859662;29;20117;-80
2023/05/28 01:31:11;;;;;;;22.92;13.77;;;;;;;-142.57;100.00;115900.28;4859708;29;20041;-81
2023/05/28 01:33:38;;;;;;;20.10;12.63;;;;;;;-142.57;100.00;115900.28;4860809;29;20120;-82
2023/05/28 01:36:08;;;;;;;23.35;13.55;;;;;;;-142.57;100.00;115900.28;4860505;29;20029;-83
2023/05/28 01:38:37;;;;;;;21.52;13.15;;;;;;;-142.57;100.00;115900.28;4845075;29;20421;-83
2023/05/28 01:41:04;;;;;;;21.25;13.27;;;;;;;-142.57;100.00;115900.28;4860896;29;20037;-84
2023/05/28 01:43:30;;;;;;;23.70;13.38;;;;;;;-142.57;100.00;115900.28;4859228;29;20097;-81
2023/05/28 01:45:55;;;;;;;23.10;12.27;;;;;;;-142.57;100.00;115900.28;4860992;29;20402;-82
2023/05/28 01:48:22;;;;;;;26.77;14.02;;;;;;;-142.57;100.00;115900.28;4860849;29;20065;-81
2023/05/28 01:50:47;;;;;;;22.02;12.38;;;;;;;-142.57;100.00;115900.28;4860556;29;20041;-82
2023/05/28 01:53:13;;;;;;;19.55;12.75;;;;;;;-142.57;100.00;115900.28;4859353;29;20057;-82
2023/05/28 01:55:39;;;;;;;19.13;12.55;;;;;;;-142.57;100.00;115900.28;4843746;29;20049;-82
2023/05/28 01:58:05;;;;;;;20.90;12.40;;;;;;;-142.57;100.00;115900.28;4861041;29;20102;-83
2023/05/28 02:00:35;;;;;;;26.95;13.10;;;;;;;-142.57;100.00;115900.28;4843688;29;20480;-81
2023/05/28 02:03:00;;;;;;;22.23;12.10;;;;;;;-142.57;100.00;115900.28;4844142;29;20057;-81
2023/05/28 02:05:26;;;;;;;25.73;12.73;;;;;;;-142.57;100.00;115900.28;4844016;29;20499;-84
2023/05/28 02:07:53;;;;;;;26.27;12.07;;;;;;;-142.57;100.00;115900.28;4847341;29;20122;-82
2023/05/28 02:10:21;;;;;;;18.67;11.82;;;;;;;-142.57;100.00;115900.28;4843978;29;20490;-82
2023/05/28 02:12:46;;;;;;;21.27;11.20;;;;;;;-142.57;100.00;115900.28;4843458;29;20036;-82
2023/05/28 02:15:12;;;;;;;20.88;11.40;;;;;;;-142.57;100.00;115900.28;4860368;29;20042;-84
2023/05/28 02:17:37;;;;;;;25.20;12.35;;;;;;;-142.57;100.00;115900.28;4858895;29;20048;-83
2023/05/28 02:20:06;;;;;;;19.30;11.45;;;;;;;-142.57;100.00;115900.28;4843533;29;20055;-81
2023/05/28 02:22:32;;;;;;;17.50;10.32;;;;;;;-142.57;100.00;115900.28;4843518;29;20048;-84
2023/05/28 02:24:57;;;;;;;17.83;11.18;;;;;;;-142.57;100.00;115900.28;4860516;29;20041;-82
2023/05/28 02:27:23;;;;;;;21.65;11.10;;;;;;;-142.57;100.00;115900.28;4860346;29;20166;-82
2023/05/28 02:29:49;;;;;;;19.42;11.30;;;;;;;-142.57;100.00;115900.28;4828320;29;20093;-84
2023/05/28 02:32:16;;;;;;;17.27;10.88;;;;;;;-142.57;100.00;115900.28;4843643;29;20095;-82
2023/05/28 02:34:41;;;;;;;21.73;11.45;;;;;;;-142.57;100.00;115900.28;4843509;29;20046;-82
2023/05/28 02:37:07;;;;;;;15.93;10.43;;;;;;;-142.57;100.00;115900.28;4843491;29;20029;-82
2023/05/28 02:39:33;;;;;;;15.05;10.13;;;;;;;-142.57;100.00;115900.28;4860071;29;20034;-82
2023/05/28 02:41:59;;;;;;;19.48;10.40;;;;;;;-142.57;100.00;115900.28;4843663;29;20042;-83
2023/05/28 02:44:24;;;;;;;19.45;10.70;;;;;;;-142.57;100.00;115900.28;4843676;29;20048;-83
2023/05/28 02:46:50;;;;;;;26.80;10.60;;;;;;;-142.57;100.00;115900.28;4843916;29;20122;-84
2023/05/28 02:49:15;;;;;;;23.88;10.15;;;;;;;-142.57;100.00;115900.28;4843911;29;20069;-82
2023/05/28 02:51:41;;;;;;;22.20;11.00;;;;;;;-142.57;100.00;115900.28;4843311;29;20059;-83
2023/05/28 02:54:27;;;;;;;26.40;11.55;;;;;;;-142.57;100.00;115900.28;4843151;29;20037;-83
2023/05/28 02:56:53;;;;;;;26.58;10.40;;;;;;;-142.57;100.00;115900.28;4828683;29;20377;-81
2023/05/28 02:59:19;;;;;;;21.02;9.85;;;;;;;-142.57;100.00;115900.28;4858744;29;20054;-82
2023/05/28 03:01:46;;;;;;;15.90;8.50;;;;;;;-142.57;100.00;115900.28;4843516;29;20137;-83
2023/05/28 03:04:11;;;;;;;15.18;8.57;;;;;;;-142.57;100.00;115900.28;4843420;29;20121;-81
2023/05/28 03:06:37;;;;;;;17.15;8.65;;;;;;;-142.57;100.00;115900.28;4843522;29;20037;-83
2023/05/28 03:09:02;;;;;;;16.05;8.00;;;;;;;-142.57;100.00;115900.28;4843588;29;20026;-81
2023/05/28 03:11:28;;;;;;;17.75;7.80;;;;;;;-142.57;100.00;115900.28;4859280;29;20052;-80
2023/05/28 03:13:54;;;;;;;17.05;7.85;;;;;;;-142.57;100.00;115900.28;4873636;29;20041;-82
2023/05/28 03:16:19;;;;;;;17.83;8.15;;;;;;;-142.57;100.00;115900.28;4855207;29;20044;-82
2023/05/28 03:18:45;;;;;;;19.00;8.85;;;;;;;-142.57;100.00;115900.28;4862123;29;20068;-82
2023/05/28 03:21:11;;;;;;;14.85;8.13;;;;;;;-142.57;100.00;115900.28;4846504;29;20129;-81
2023/05/28 03:23:36;;;;;;;17.30;8.98;;;;;;;-142.57;100.00;115900.28;4846658;29;20388;-82
2023/05/28 03:26:26;;;;;;;11.55;7.82;;;;;;;-142.57;100.00;115900.28;4847509;29;20057;-82
2023/05/28 03:28:59;;;;;;;19.95;8.65;;;;;;;-142.57;100.00;115900.28;4844577;29;20057;-82
2023/05/28 03:31:46;;;;;;;16.92;8.18;;;;;;;-142.57;100.00;115900.28;4833938;29;20113;-83
2023/05/28 03:34:14;;;;;;;18.75;8.20;;;;;;;-142.57;100.00;115900.28;4861739;29;20037;-82
2023/05/28 03:36:40;;;;;;;18.08;8.15;;;;;;;-142.57;100.00;115900.28;4846279;29;20041;-83
2023/05/28 03:39:09;;;;;;;16.23;8.02;;;;;;;-142.57;100.00;115900.28;4865096;29;20072;-82
2023/05/28 03:41:36;;;;;;;15.90;8.52;;;;;;;-142.57;100.00;115900.28;4846125;29;20037;-81
2023/05/28 03:44:03;;;;;;;13.88;7.72;;;;;;;-142.57;100.00;115900.28;4861261;29;20060;-81
2023/05/28 03:46:28;;;;;;;14.73;7.80;;;;;;;-142.57;100.00;115900.28;4846163;29;20045;-82
2023/05/28 03:48:54;;;;;;;13.68;8.02;;;;;;;-142.57;100.00;115900.28;4846352;29;20040;-81
2023/05/28 03:51:21;;;;;;;15.07;7.93;;;;;;;-142.57;100.00;115900.28;4863087;29;20089;-81
2023/05/28 03:53:47;;;;;;;19.80;8.65;;;;;;;-142.57;100.00;115900.28;4845932;29;20042;-83
2023/05/28 03:56:13;;;;;;;18.63;7.97;;;;;;;-142.57;100.00;115900.28;4829790;29;20053;-82
2023/05/28 03:58:39;;;;;;;21.15;8.60;;;;;;;-142.57;100.00;115900.28;4845476;29;20384;-84
2023/05/28 04:01:04;;;;;;;18.73;7.68;;;;;;;-142.57;100.00;115900.28;4845812;29;20034;-81
2023/05/28 04:03:30;;;;;;;15.18;7.85;;;;;;;-142.57;100.00;115900.28;4845695;29;20109;-83
2023/05/28 04:05:55;;;;;;;13.13;7.63;;;;;;;-142.57;100.00;115900.28;4845684;29;20080;-82
2023/05/28 04:08:22;;;;;;;14.60;7.43;;;;;;;-142.57;100.00;115900.28;4845584;29;20037;-82
2023/05/28 04:10:47;;;;;;;14.77;7.45;;;;;;;-142.57;100.00;115900.28;4861053;29;20045;-83
2023/05/28 04:13:13;;;;;;;15.57;7.22;;;;;;;-142.57;100.00;115900.28;4845887;29;20038;-82
2023/05/28 04:15:38;;;;;;;14.27;8.48;;;;;;;-142.57;100.00;115900.28;4830479;29;20049;-82
2023/05/28 04:18:05;;;;;;;15.50;8.73;;;;;;;-142.57;100.00;115900.28;4845728;29;20036;-82
2023/05/28 04:20:32;;;;;;;14.00;8.05;;;;;;;-142.57;100.00;115900.28;4845442;29;20033;-84
2023/05/28 04:22:58;;;;;;;13.45;8.27;;;;;;;-142.57;100.00;115900.28;4862615;29;20089;-83
2023/05/28 04:25:27;;;;;;;24.17;8.63;;;;;;;-142.57;100.00;115900.28;4845140;29;20038;-81
2023/05/28 04:27:52;;;;;;;14.63;9.10;;;;;;;-142.57;100.00;115900.28;4845324;29;20464;-82
2023/05/28 04:30:22;;;;;;;16.33;8.02;;;;;;;-142.57;100.00;115900.28;4830358;29;20044;-80
2023/05/28 04:32:51;;;;;;;17.25;9.35;;;;;;;-142.57;100.00;115900.28;4862122;29;20507;-81
2023/05/28 04:35:17;;;;;;;14.93;8.45;;;;;;;-142.57;100.00;115900.28;4860589;29;20049;-83
2023/05/28 04:37:44;;;;;;;16.58;8.27;;;;;;;-142.57;100.00;115900.28;4845037;29;20076;-82
2023/05/28 04:40:13;;;;;;;12.65;8.45;;;;;;;-142.57;100.00;115900.28;4845127;29;20029;-84
2023/05/28 04:42:42;;;;;;;17.70;9.80;;;;;;;-142.57;100.00;115900.28;4844830;29;20143;-80
2023/05/28 04:45:10;;;;;;;14.20;9.45;;;;;;;-142.57;100.00;115900.28;4845080;29;20503;-82
2023/05/28 04:47:36;;;;;;;18.67;8.40;;;;;;;-142.57;100.00;115900.28;4860440;29;20048;-81
2023/05/28 04:50:04;;;;;;;16.25;8.63;;;;;;;-142.57;100.00;115900.28;4860447;29;20038;-83
2023/05/28 04:52:32;;;;;;;17.42;8.38;;;;;;;-142.57;100.00;115900.28;4860223;29;20061;-81
2023/05/28 04:54:58;;;;;;;25.55;10.30;;;;;;;-142.57;100.00;115900.28;4846993;29;20491;-84
2023/05/28 04:57:24;;;;;;;12.95;8.25;;;;;;;-142.57;100.00;115900.28;4860921;29;20034;-80
2023/05/28 04:59:51;;;;;;;13.57;7.70;;;;;;;-142.57;100.00;115900.28;4860906;29;20038;-80
2023/05/28 05:02:18;;;;;;;14.40;7.85;;;;;;;-142.57;100.00;115900.28;4846033;29;20033;-79
2023/05/28 05:04:45;;;;;;;16.27;8.05;;;;;;;-142.57;100.00;115900.28;4845832;29;20037;-82
2023/05/28 05:07:14;;;;;;;15.15;7.03;;;;;;;-142.57;100.00;115900.28;4829972;29;20045;-81
2023/05/28 05:09:40;;;;;;;10.65;7.15;;;;;;;-142.57;100.00;115900.28;4859997;29;20365;-82
2023/05/28 05:12:06;;;;;;;27.90;7.55;;;;;;;-142.57;100.00;115900.28;4861465;29;20044;-79
2023/05/28 05:14:32;;;;;;;18.10;8.27;;;;;;;-142.57;100.00;115900.28;4859861;29;20357;-82
2023/05/28 05:16:58;;;;;;;14.73;7.40;;;;;;;-142.57;100.00;115900.28;4861965;29;20030;-82
2023/05/28 05:19:25;;;;;;;17.60;7.55;;;;;;;-142.57;100.00;115900.28;4844618;29;20030;-82
2023/05/28 05:21:51;;;;;;;17.15;8.30;;;;;;;-142.57;100.00;115900.28;4844442;29;20069;-84
2023/05/28 05:24:17;;;;;;;14.77;7.97;;;;;;;-142.57;100.00;115900.28;4861077;29;20117;-84
2023/05/28 05:26:42;;;;;;;16.48;8.20;;;;;;;-142.57;100.00;115900.28;4844725;29;20048;-80
2023/05/28 05:29:08;;;;;;;17.33;8.35;;;;;;;-142.57;100.00;115900.28;4845677;29;20108;-83
2023/05/28 05:31:33;;;;;;;18.90;8.98;;;;;;;-142.57;100.00;115900.28;4862080;29;20033;-80
2023/05/28 05:33:59;;;;;;;23.52;8.23;;;;;;;-142.57;100.00;115900.28;4860207;29;20069;-83
2023/05/28 05:36:40;;;;;;;16.95;8.13;;;;;;;-142.57;100.00;115900.28;4861580;29;20188;-82
2023/05/28 05:39:26;;;;;;;18.35;8.80;;;;;;;-142.57;100.00;115900.28;4861004;29;20496;-83
2023/05/28 05:42:22;;;;;;;29.50;9.10;;;;;;;-142.57;100.00;115900.28;4844482;29;20088;-80
2023/05/28 05:44:50;;;;;;;15.30;9.30;;;;;;;-142.57;100.00;115900.28;4844659;29;20093;-79
2023/05/28 05:47:16;;;;;;;19.50;9.77;;;;;;;-142.57;100.00;115900.28;4861227;29;20064;-81
2023/05/28 05:49:41;;;;;;;18.40;10.00;;;;;;;-142.57;100.00;115900.28;4860980;29;20484;-81
2023/05/28 05:52:07;;;;;;;20.25;11.15;;;;;;;-142.57;100.00;115900.28;4844563;29;20436;-82
2023/05/28 05:54:35;;;;;;;28.75;11.98;;;;;;;-142.57;100.00;115900.28;4844039;29;20044;-83
2023/05/28 05:57:02;;;;;;;25.50;10.45;;;;;;;-142.57;100.00;115900.28;4844448;29;20033;-80
2023/05/28 05:59:31;;;;;;;19.35;11.52;;;;;;;-142.57;100.00;115900.28;4845017;29;20042;-84
2023/05/28 06:01:57;;;;;;;20.17;10.95;;;;;;;-142.57;100.00;115900.28;4861276;29;20102;-81
2023/05/28 06:04:24;;;;;;;17.98;11.35;;;;;;;-142.57;100.00;115900.28;4860822;29;20053;-84
2023/05/28 06:07:08;;;;;;;26.17;11.98;;;;;;;-142.57;100.00;115900.28;4861758;29;20048;-83
2023/05/28 06:09:50;;;;;;;25.05;11.82;;;;;;;-142.57;100.00;115900.28;4850853;29;20029;-81
2023/05/28 06:12:22;;;;;;;19.73;11.20;;;;;;;-142.57;100.00;115900.28;4846239;29;20041;-86
2023/05/28 06:14:49;;;;;;;18.02;10.93;;;;;;;-142.57;98.80;115900.28;4846567;29;20069;-80
2023/05/28 06:17:16;;;;;;;22.80;11.43;;;;;;;-142.57;95.52;115900.28;4832748;29;20049;-85
2023/05/28 06:19:42;;;;;;;22.60;11.30;;;;;;;-142.57;95.88;115900.28;4846188;29;20226;-83
2023/05/28 06:22:09;;;;;;;28.13;12.27;;;;;;;-142.57;95.25;115900.28;4845829;29;20061;-82
2023/05/28 06:24:36;;;;;;;21.42;13.30;;;;;;;-142.57;82.44;115900.28;4860684;29;20045;-81
2023/05/28 06:27:03;;;;;;;23.58;13.63;;;;;;;-142.57;81.60;115900.28;4829743;29;20033;-82
2023/05/28 06:29:29;;;;;;;22.73;12.45;;;;;;;-142.57;77.13;115900.28;4845498;29;20124;-84
2023/05/28 06:31:54;;;;;;;27.65;13.57;;;;;;;-142.57;68.28;115900.28;4861545;29;20045;-85
2023/05/28 06:34:21;;;;;;;28.05;14.88;;;;;;;-142.57;64.96;115900.28;4845730;29;20488;-83
2023/05/28 06:36:47;;;;;;;22.23;13.88;;;;;;;-142.57;72.60;115900.28;4845596;29;20113;-85
2023/05/28 06:39:12;;;;;;;19.50;13.18;;;;;;;-142.57;67.34;115900.28;4862360;29;20041;-87
2023/05/28 06:41:40;;;;;;;26.27;13.70;;;;;;;-142.57;68.94;115900.28;4847541;29;20026;-87
2023/05/28 06:44:05;;;;;;;22.02;14.77;;;;;;;-142.57;71.39;115900.28;4833425;29;20049;-87
2023/05/28 06:46:44;;;;;;;24.35;15.93;;;;;;;-142.57;73.87;115900.28;4835133;29;20412;-82
2023/05/28 06:49:12;;;;;;;26.77;15.50;;;;;;;-142.57;69.18;115900.28;4874903;29;20014;-84
2023/05/28 06:51:38;;;;;;;26.80;18.02;;;;;;;-142.57;69.15;115900.28;4865718;29;20037;-81
2023/05/28 06:54:03;;;;;;;27.38;17.83;;;;;;;-142.57;69.71;115900.28;4869506;29;20105;-84
2023/05/28 06:56:31;;;;;;;31.08;18.42;;;;;;;-142.57;66.52;115900.28;4884085;29;20129;-83
2023/05/28 06:59:32;;;;;;;31.42;17.42;;;;;;;-142.57;66.33;115900.28;4827763;29;20047;-83
2023/05/28 07:02:16;;;;;;;28.98;18.60;;;;;;;-142.57;72.23;115900.28;4879030;29;20093;-82
2023/05/28 07:05:04;;;;;;;29.42;18.30;;;;;;;-142.57;71.83;115900.28;4854877;29;20057;-84
2023/05/28 07:07:32;;;;;;;26.70;18.10;;;;;;;-142.57;69.81;115900.28;4867825;29;20040;-87
2023/05/28 07:09:58;;;;;;;32.38;18.08;;;;;;;-142.57;64.90;115900.28;4882354;29;20037;-86
2023/05/28 07:12:23;;;;;;;28.90;17.98;;;;;;;-142.57;69.20;115900.28;4858275;29;20072;-85
2023/05/28 07:14:53;;;;;;;29.23;18.35;;;;;;;-142.57;65.38;115900.28;4860787;29;20409;-82
2023/05/28 07:17:20;;;;;;;30.52;17.90;;;;;;;-142.57;66.48;115900.28;4846460;29;20065;-86
2023/05/28 07:19:47;;;;;;;25.48;15.70;;;;;;;-142.57;57.52;115900.28;4864077;29;20447;-85
2023/05/28 07:22:16;;;;;;;24.70;16.85;;;;;;;-142.57;54.73;115900.28;4867994;29;20041;-83
2023/05/28 07:24:41;;;;;;;24.77;15.05;;;;;;;-142.57;51.75;115900.28;4884096;29;20101;-82
2023/05/28 07:27:07;;;;;;;24.40;15.20;;;;;;;-142.57;50.13;115900.28;4883746;29;20062;-90
2023/05/28 07:29:33;;;;;;;24.23;16.05;;;;;;;-142.57;50.71;115900.28;4867213;29;20044;-84
2023/05/28 07:31:59;;;;;;;23.77;15.07;;;;;;;-142.57;52.31;115900.28;4858537;29;20544;-87
2023/05/28 07:34:26;;;;;;;22.83;15.23;;;;;;;-142.57;49.92;115900.28;4833831;29;20041;-85
2023/05/28 07:36:51;;;;;;;21.58;14.05;;;;;;;-142.57;50.50;115900.28;4849662;29;20045;-85
2023/05/28 07:39:17;;;;;;;24.67;16.52;;;;;;;-142.57;52.61;115900.28;4849263;29;20041;-87
2023/05/28 07:41:44;;;;;;;23.80;14.02;;;;;;;-142.57;52.25;115900.28;4849422;29;20049;-88
2023/05/28 07:44:15;;;;;;;21.73;13.77;;;;;;;-142.57;47.96;115900.28;4837932;29;20048;-87
2023/05/28 07:46:40;;;;;;;22.25;12.82;;;;;;;-142.57;47.49;115900.28;4849976;29;20045;-85
2023/05/28 07:49:16;;;;;;;25.17;12.07;;;;;;;-142.57;45.20;115900.28;4836422;29;20072;-87
2023/05/28 07:51:43;;;;;;;22.67;12.23;;;;;;;-142.57;42.37;115900.28;4849138;29;20033;-86
2023/05/28 07:58:18;;;;;;;17.27;10.93;;;;;;;-142.57;45.67;115900.28;4827021;29;20050;-91
2023/05/28 08:01:02;;;;;;;22.05;13.25;;;;;;;-142.57;47.14;115900.28;4827762;29;20027;-90
2023/05/28 08:03:27;;;;;;;21.08;13.43;;;;;;;-142.57;49.22;115900.28;4827072;29;20047;-91
2023/05/28 08:05:54;;;;;;;26.48;13.15;;;;;;;-142.57;50.19;115900.28;4807629;29;20107;-89
2023/05/28 08:08:20;;;;;;;26.25;13.52;;;;;;;-142.57;50.67;115900.28;4818245;29;20043;-89
2023/05/28 08:11:05;;;;;;;23.02;14.20;;;;;;;-142.57;52.42;115900.28;4818266;29;20134;-89
2023/05/28 08:13:32;;;;;;;20.98;12.75;;;;;;;-142.57;51.11;115900.28;4823024;29;20043;-90
2023/05/28 08:16:05;;;;;;;23.05;13.10;;;;;;;-142.57;52.89;115900.28;4820370;29;20058;-90
2023/05/28 08:18:45;;;;;;;24.77;13.80;;;;;;;-142.57;53.46;115900.28;4812151;29;20039;-87
2023/05/28 08:21:11;;;;;;;22.00;14.10;;;;;;;-142.57;53.33;115900.28;4812636;29;20238;-89
2023/05/28 08:23:37;;;;;;;23.05;13.50;;;;;;;-142.57;51.51;115900.28;4811893;29;20051;-88
2023/05/28 08:26:06;;;;;;;26.05;11.95;;;;;;;-142.57;49.31;115900.28;4784076;29;20035;-89
2023/05/28 08:28:33;;;;;;;21.70;11.80;;;;;;;-142.57;48.41;115900.28;4815629;29;20398;-90
2023/05/28 08:30:59;;;;;;;24.02;14.13;;;;;;;-142.57;50.01;115900.28;4812391;29;20099;-88
2023/05/28 08:33:51;;;;;;;23.13;14.90;;;;;;;-142.57;51.78;115900.28;4850268;29;20040;-88
2023/05/28 08:36:19;;;;;;;22.38;14.68;;;;;;;-142.57;51.49;115900.28;4911769;29;20327;-89
2023/05/28 08:38:45;;;;;;;29.65;15.27;;;;;;;-142.57;53.17;115900.28;4926294;29;20131;-86
2023/05/28 08:41:12;;;;;;;23.77;14.43;;;;;;;-142.57;53.78;115900.28;4921800;29;20028;-86
2023/05/28 08:43:38;;;;;;;22.67;13.18;;;;;;;-142.57;52.77;115900.28;4920164;29;20090;-88
2023/05/28 08:46:05;;;;;;;21.88;12.70;;;;;;;-142.57;51.55;115900.28;4919584;29;20036;-83
2023/05/28 08:48:41;;;;;;;21.70;13.10;;;;;;;-142.57;51.45;115900.28;4922864;29;20036;-86
2023/05/28 08:51:07;;;;;;;27.85;14.07;;;;;;;-142.57;50.76;115900.28;4923314;29;20036;-86
2023/05/28 08:53:47;;;;;;;17.20;11.57;;;;;;;-142.57;49.69;115900.28;4907641;29;20048;-84
2023/05/28 08:56:17;;;;;;;22.90;13.48;;;;;;;-142.57;48.38;115900.28;4938020;29;20048;-83
2023/05/28 08:58:44;;;;;;;22.88;13.40;;;;;;;-142.57;49.04;115900.28;4907574;29;20028;-84
2023/05/28 09:01:10;;;;;;;19.98;14.43;;;;;;;-142.57;49.40;115900.28;4904729;29;20040;-82
2023/05/28 09:03:55;;;;;;;22.65;13.70;;;;;;;-142.57;48.89;115900.28;4936359;29;20070;-85
2023/05/28 09:06:37;;;;;;;21.55;12.32;;;;;;;-142.57;47.54;115900.28;4923026;29;20635;-85
2023/05/28 09:09:07;;;;;;;22.25;12.95;;;;;;;-142.57;45.83;115900.28;4894058;29;20040;-85
2023/05/28 09:11:41;;;;;;;20.05;13.07;;;;;;;-142.57;47.09;115900.28;4886882;29;20116;-86
2023/05/28 09:14:12;;;;;;;25.95;15.25;;;;;;;-142.57;44.67;115900.28;4868786;29;20097;-87
2023/05/28 09:16:43;;;;;;;25.83;15.30;;;;;;;-142.57;42.78;115900.28;4881614;29;20124;-85
2023/05/28 09:19:15;;;;;;;18.83;12.95;;;;;;;-142.57;41.37;115900.28;4867146;29;20029;-85
2023/05/28 09:21:57;;;;;;;18.52;11.80;;;;;;;-142.57;40.65;115900.28;4881415;29;20402;-87
2023/05/28 09:24:33;;;;;;;22.20;13.13;;;;;;;-142.57;43.16;115900.28;4881022;29;20120;-87
2023/05/28 09:27:19;;;;;;;23.67;13.05;;;;;;;-142.57;45.73;115900.28;4868342;29;20037;-82
2023/05/28 09:29:46;;;;;;;20.55;14.00;;;;;;;-142.57;46.60;115900.28;4883444;29;20351;-87
2023/05/28 09:32:18;;;;;;;22.33;12.90;;;;;;;-142.57;47.01;115900.28;4879850;29;20049;-87
2023/05/28 09:34:44;;;;;;;27.10;14.18;;;;;;;-142.57;45.05;115900.28;4882750;29;20037;-85
2023/05/28 09:37:16;;;;;;;24.70;12.63;;;;;;;-142.57;44.84;115900.28;4896526;29;20037;-87
2023/05/28 09:39:42;;;;;;;20.38;11.70;;;;;;;-142.57;42.74;115900.28;4883683;29;20056;-87
2023/05/28 09:42:11;;;;;;;28.05;12.82;;;;;;;-142.57;43.36;115900.28;4853029;29;20052;-85
2023/05/28 09:44:40;;;;;;;27.65;13.20;;;;;;;-142.57;42.82;115900.28;4882518;29;20049;-85
2023/05/28 09:47:14;;;;;;;21.00;13.00;;;;;;;-142.57;42.12;115900.28;4881917;29;20036;-86
2023/05/28 09:49:43;;;;;;;17.05;10.98;;;;;;;-142.57;40.69;115900.28;4899202;29;20444;-87
2023/05/28 09:52:12;;;;;;;15.27;9.90;;;;;;;-142.57;40.76;115900.28;4883616;29;20100;-85
2023/05/28 09:54:40;;;;;;;13.98;9.45;;;;;;;-142.57;40.52;115900.28;4881787;29;20522;-86
2023/05/28 09:57:09;;;;;;;17.73;9.45;;;;;;;-142.57;40.13;115900.28;4900246;29;20037;-85
2023/05/28 09:59:38;;;;;;;15.10;9.25;;;;;;;-142.57;38.58;115900.28;4904502;29;20052;-86
2023/05/28 10:02:22;;;;;;;19.75;9.02;;;;;;;-142.57;38.96;115900.28;4909050;29;20413;-83
2023/05/28 10:04:53;;;;;;;13.88;8.43;;;;;;;-142.57;37.29;115900.28;4902102;29;20092;-84
2023/05/28 10:07:21;;;;;;;14.38;8.55;;;;;;;-142.57;37.31;115900.28;4908151;29;20040;-85
2023/05/28 10:09:47;;;;;;;18.67;9.13;;;;;;;-142.57;37.34;115900.28;4906505;29;20043;-86
2023/05/28 10:12:18;;;;;;;15.85;9.10;;;;;;;-142.57;37.87;115900.28;4884728;29;20045;-86
2023/05/28 10:14:46;;;;;;;14.68;9.68;;;;;;;-142.57;38.30;115900.28;4900240;29;20051;-88
2023/05/28 10:17:11;;;;;;;14.65;9.30;;;;;;;-142.57;37.36;115900.28;4885700;29;20025;-86
2023/05/28 10:19:38;;;;;;;15.75;8.05;;;;;;;-142.57;37.76;115900.28;4884377;29;20063;-88
2023/05/28 10:22:05;;;;;;;21.42;10.40;;;;;;;-142.57;38.38;115900.28;4885987;29;20119;-87
2023/05/28 10:24:33;;;;;;;17.25;10.48;;;;;;;-142.57;39.43;115900.28;4907714;29;20128;-86
2023/05/28 10:26:58;;;;;;;19.63;11.55;;;;;;;-142.57;40.18;115900.28;4908195;29;20096;-85
2023/05/28 10:29:24;;;;;;;19.23;10.00;;;;;;;-142.57;38.42;115900.28;4906438;29;20502;-87
2023/05/28 10:32:00;;;;;;;19.50;11.27;;;;;;;-142.57;39.64;115900.28;4874111;29;20045;-87
2023/05/28 10:34:31;;;;;;;19.30;12.00;;;;;;;-142.57;40.18;115900.28;4906251;29;20066;-85
2023/05/28 10:37:01;;;;;;;29.80;11.93;;;;;;;-142.57;41.49;115900.28;4903711;29;20048;-89
2023/05/28 10:39:36;;;;;;;20.17;12.60;;;;;;;-142.57;42.02;115900.28;4888917;29;20303;-85
2023/05/28 10:42:03;;;;;;;20.13;14.85;;;;;;;-142.57;43.37;115900.28;4889791;29;20048;-87
2023/05/28 10:44:48;;;;;;;22.50;13.23;;;;;;;-142.57;43.54;115900.28;4908044;29;20036;-87
2023/05/28 10:47:16;;;;;;;23.10;13.68;;;;;;;-142.57;42.22;115900.28;4891668;29;20526;-88
2023/05/28 10:50:00;;;;;;;17.38;10.13;;;;;;;-142.57;41.33;115900.28;4889839;29;20188;-84
2023/05/28 10:52:35;;;;;;;20.73;11.38;;;;;;;-142.57;41.92;115900.28;4911838;29;20033;-82
2023/05/28 10:55:30;;;;;;;20.20;11.25;;;;;;;-142.57;40.21;115900.28;4924526;29;20104;-85
2023/05/28 10:58:11;;;;;;;23.42;12.00;;;;;;;-142.57;40.95;115900.28;4918049;29;20048;-87
2023/05/28 11:00:40;;;;;;;22.13;11.82;;;;;;;-142.57;42.18;115900.28;4895665;29;20060;-88
2023/05/28 11:03:06;;;;;;;29.35;13.13;;;;;;;-142.57;41.34;115900.28;4877414;29;20036;-88